Time,TemperatureF,DewpointF,PressureIn,WindDirection,WindDirectionDegrees,WindSpeedMPH,WindSpeedGustMPH,Humidity,HourlyPrecipIn,Conditions,Clouds,dailyrainin,SoftwareType,DateUTC
2013-09-18 00:00:00,47.0,42.0,30.33,NW,304,4.0,5.0,84,0.00,,,-99.99,,2013-09-18 04:00:00,
2013-09-18 00:44:00,47.0,42.0,30.33,NW,304,4.0,5.0,84,0.00,,,-99.99,,2013-09-18 04:44:00,
2013-09-18 00:54:00,47.0,42.0,30.33,NW,304,4.0,5.0,84,0.00,,,-99.99,,2013-09-18 04:54:00,
2013-09-18 01:00:00,47.0,42.0,30.33,NW,305,4.0,5.0,85,0.00,,,-99.99,,2013-09-18 05:00:00,
2013-09-18 01:43:00,47.0,42.0,30.33,NW,305,4.0,5.0,85,0.00,,,-99.99,,2013-09-18 05:43:00,
2013-09-18 01:53:00,47.0,42.0,30.33,NW,305,4.0,5.0,85,0.00,,,-99.99,,2013-09-18 05:53:00,
2013-09-18 02:00:00,45.0,41.0,30.33,NW,306,5.0,6.0,86,0.00,,,-99.99,,2013-09-18 06:00:00,
2013-09-18 02:42:00,45.0,41.0,30.33,NW,306,5.0,6.0,86,0.00,,,-99.99,,2013-09-18 06:42:00,
2013-09-18 02:52:00,45.0,41.0,30.33,NW,306,5.0,6.0,86,0.00,,,-99.99,,2013-09-18 06:52:00,
2013-09-18 03:00:00,46.0,42.0,30.32,WNW,299,7.0,8.0,86,0.00,,,-99.99,,2013-09-18 07:00:00,
2013-09-18 03:42:00,46.0,42.0,30.32,WNW,299,7.0,8.0,86,0.00,,,-99.99,,2013-09-18 07:42:00,
2013-09-18 03:52:00,46.0,42.0,30.32,WNW,299,7.0,8.0,86,0.00,,,-99.99,,2013-09-18 07:52:00,
2013-09-18 04:00:00,47.0,42.0,30.31,WNW,302,6.0,8.0,84,0.00,,,-99.99,,2013-09-18 08:00:00,
2013-09-18 04:42:00,47.0,42.0,30.31,WNW,302,6.0,8.0,84,0.00,,,-99.99,,2013-09-18 08:42:00,
2013-09-18 04:52:00,47.0,42.0,30.31,WNW,302,6.0,8.0,84,0.00,,,-99.99,,2013-09-18 08:52:00,
2013-09-18 05:00:00,46.0,42.0,30.31,WNW,301,7.0,-999.0,84,-99.99,,,-99.99,,2013-09-18 09:00:00,
2013-09-18 05:43:00,46.0,42.0,30.31,WNW,301,7.0,-999.0,84,-99.99,,,-99.99,,2013-09-18 09:43:00,
2013-09-18 05:53:00,46.0,42.0,30.31,WNW,301,7.0,-999.0,84,-99.99,,,-99.99,,2013-09-18 09:53:00,
2013-09-18 06:00:00,46.0,42.0,30.30,NW,304,8.0,8.0,85,0.00,,,-99.99,,2013-09-18 10:00:00,
2013-09-18 06:43:00,46.0,42.0,30.30,NW,304,8.0,8.0,85,0.00,,,-99.99,,2013-09-18 10:43:00,
2013-09-18 06:53:00,46.0,42.0,30.30,NW,304,8.0,8.0,85,0.00,,,-99.99,,2013-09-18 10:53:00,
2013-09-18 07:00:00,47.0,42.0,30.32,NW,305,7.0,9.0,84,0.00,,,-99.99,,2013-09-18 11:00:00,
2013-09-18 07:42:00,47.0,42.0,30.32,NW,305,7.0,9.0,84,0.00,,,-99.99,,2013-09-18 11:42:00,
2013-09-18 07:52:00,47.0,42.0,30.32,NW,305,7.0,9.0,84,0.00,,,-99.99,,2013-09-18 11:52:00,
2013-09-18 08:00:00,53.0,45.0,30.32,NW,306,8.0,10.0,75,0.00,,,-99.99,,2013-09-18 12:00:00,
2013-09-18 08:43:00,53.0,45.0,30.32,NW,306,8.0,10.0,75,0.00,,,-99.99,,2013-09-18 12:43:00,
2013-09-18 08:52:00,53.0,45.0,30.32,NW,306,8.0,10.0,75,0.00,,,-99.99,,2013-09-18 12:52:00,
2013-09-18 23:00:00,58.0,50.0,30.19,SW,232,6.0,8.0,76,0.00,,,-99.99,,2013-09-19 03:00:00,